sensor_id;sensor_type;location;lat;lon;timestamp;P1;durP1;ratioP1;P2;durP2;ratioP2
4812;SDS011;2420;51.202;8.698;2023-03-09T00:00:20;16.73;;;8.80;;
4812;SDS011;2420;51.202;8.698;2023-03-09T00:02:47;15.07;;;8.45;;
4812;SDS011;2420;51.202;8.698;2023-03-09T00:05:13;14.45;;;7.63;;
4812;SDS011;2420;51.202;8.698;2023-03-09T00:07:41;18.30;;;8.20;;
4812;SDS011;2420;51.202;8.698;2023-03-09T00:10:09;21.63;;;10.90;;
4812;SDS011;2420;51.202;8.698;2023-03-09T00:12:36;28.33;;;11.73;;
4812;SDS011;2420;51.202;8.698;2023-03-09T00:15:02;28.65;;;12.95;;
4812;SDS011;2420;51.202;8.698;2023-03-09T00:17:27;26.30;;;12.52;;
4812;SDS011;2420;51.202;8.698;2023-03-09T00:19:53;24.15;;;11.68;;
4812;SDS011;2420;51.202;8.698;2023-03-09T00:22:25;26.58;;;11.60;;
4812;SDS011;2420;51.202;8.698;2023-03-09T00:24:54;23.30;;;10.98;;
4812;SDS011;2420;51.202;8.698;2023-03-09T00:27:21;19.95;;;10.02;;
4812;SDS011;2420;51.202;8.698;2023-03-09T00:29:46;20.92;;;9.70;;
4812;SDS011;2420;51.202;8.698;2023-03-09T00:32:12;18.63;;;8.82;;
4812;SDS011;2420;51.202;8.698;2023-03-09T00:34:37;18.52;;;8.50;;
4812;SDS011;2420;51.202;8.698;2023-03-09T00:37:03;18.20;;;8.55;;
4812;SDS011;2420;51.202;8.698;2023-03-09T00:39:29;19.33;;;9.07;;
4812;SDS011;2420;51.202;8.698;2023-03-09T00:41:54;17.33;;;8.48;;
4812;SDS011;2420;51.202;8.698;2023-03-09T00:44:20;18.58;;;8.93;;
4812;SDS011;2420;51.202;8.698;2023-03-09T00:46:45;18.48;;;8.85;;
4812;SDS011;2420;51.202;8.698;2023-03-09T00:49:12;22.95;;;9.18;;
4812;SDS011;2420;51.202;8.698;2023-03-09T00:51:39;18.40;;;9.15;;
4812;SDS011;2420;51.202;8.698;2023-03-09T00:54:06;19.73;;;8.38;;
4812;SDS011;2420;51.202;8.698;2023-03-09T00:56:33;16.92;;;8.23;;
4812;SDS011;2420;51.202;8.698;2023-03-09T00:58:59;17.20;;;8.23;;
4812;SDS011;2420;51.202;8.698;2023-03-09T01:01:26;18.45;;;7.90;;
4812;SDS011;2420;51.202;8.698;2023-03-09T01:03:52;13.60;;;7.47;;
4812;SDS011;2420;51.202;8.698;2023-03-09T01:06:18;16.10;;;7.68;;
4812;SDS011;2420;51.202;8.698;2023-03-09T01:08:44;13.68;;;7.15;;
4812;SDS011;2420;51.202;8.698;2023-03-09T01:11:13;14.85;;;7.82;;
4812;SDS011;2420;51.202;8.698;2023-03-09T01:13:40;14.23;;;6.90;;
4812;SDS011;2420;51.202;8.698;2023-03-09T01:16:06;12.02;;;6.35;;
4812;SDS011;2420;51.202;8.698;2023-03-09T01:18:32;14.35;;;6.70;;
4812;SDS011;2420;51.202;8.698;2023-03-09T01:20:58;13.20;;;6.93;;
4812;SDS011;2420;51.202;8.698;2023-03-09T01:23:24;16.08;;;8.07;;
4812;SDS011;2420;51.202;8.698;2023-03-09T01:25:50;19.48;;;8.52;;
4812;SDS011;2420;51.202;8.698;2023-03-09T01:28:15;18.65;;;9.85;;
4812;SDS011;2420;51.202;8.698;2023-03-09T01:30:41;21.33;;;10.55;;
4812;SDS011;2420;51.202;8.698;2023-03-09T01:33:06;20.65;;;9.70;;
4812;SDS011;2420;51.202;8.698;2023-03-09T01:35:32;21.27;;;9.98;;
4812;SDS011;2420;51.202;8.698;2023-03-09T01:37:58;20.20;;;9.70;;
4812;SDS011;2420;51.202;8.698;2023-03-09T01:40:24;23.58;;;10.23;;
4812;SDS011;2420;51.202;8.698;2023-03-09T01:42:55;19.42;;;10.10;;
4812;SDS011;2420;51.202;8.698;2023-03-09T01:48:07;19.85;;;9.73;;
4812;SDS011;2420;51.202;8.698;2023-03-09T01:50:33;20.80;;;10.98;;
4812;SDS011;2420;51.202;8.698;2023-03-09T01:53:02;18.70;;;10.32;;
4812;SDS011;2420;51.202;8.698;2023-03-09T01:55:34;19.92;;;10.02;;
4812;SDS011;2420;51.202;8.698;2023-03-09T01:58:05;18.35;;;10.07;;
4812;SDS011;2420;51.202;8.698;2023-03-09T02:00:34;18.92;;;9.38;;
4812;SDS011;2420;51.202;8.698;2023-03-09T02:03:11;18.80;;;9.38;;
4812;SDS011;2420;51.202;8.698;2023-03-09T02:08:27;18.20;;;9.07;;
4812;SDS011;2420;51.202;8.698;2023-03-09T02:10:55;17.10;;;8.27;;
4812;SDS011;2420;51.202;8.698;2023-03-09T02:13:32;15.20;;;7.88;;
4812;SDS011;2420;51.202;8.698;2023-03-09T02:16:09;15.57;;;7.82;;
4812;SDS011;2420;51.202;8.698;2023-03-09T02:18:34;17.30;;;8.32;;
4812;SDS011;2420;51.202;8.698;2023-03-09T02:23:40;15.82;;;7.53;;
4812;SDS011;2420;51.202;8.698;2023-03-09T02:26:34;16.77;;;7.60;;
4812;SDS011;2420;51.202;8.698;2023-03-09T02:29:15;19.48;;;7.97;;
4812;SDS011;2420;51.202;8.698;2023-03-09T02:31:41;19.38;;;8.95;;
4812;SDS011;2420;51.202;8.698;2023-03-09T02:34:07;16.85;;;8.35;;
4812;SDS011;2420;51.202;8.698;2023-03-09T02:36:34;17.63;;;8.85;;
4812;SDS011;2420;51.202;8.698;2023-03-09T02:39:01;16.02;;;7.82;;
4812;SDS011;2420;51.202;8.698;2023-03-09T02:41:34;16.25;;;8.32;;
4812;SDS011;2420;51.202;8.698;2023-03-09T02:43:59;16.88;;;8.32;;
4812;SDS011;2420;51.202;8.698;2023-03-09T02:46:26;18.38;;;9.00;;
4812;SDS011;2420;51.202;8.698;2023-03-09T02:48:51;15.95;;;8.50;;
4812;SDS011;2420;51.202;8.698;2023-03-09T02:51:17;16.48;;;8.55;;
4812;SDS011;2420;51.202;8.698;2023-03-09T02:53:42;17.88;;;8.80;;
4812;SDS011;2420;51.202;8.698;2023-03-09T02:56:08;16.50;;;8.60;;
4812;SDS011;2420;51.202;8.698;2023-03-09T02:58:34;16.92;;;8.52;;
4812;SDS011;2420;51.202;8.698;2023-03-09T03:00:59;15.55;;;8.50;;
4812;SDS011;2420;51.202;8.698;2023-03-09T03:03:25;17.35;;;8.70;;
4812;SDS011;2420;51.202;8.698;2023-03-09T03:05:51;16.27;;;7.95;;
4812;SDS011;2420;51.202;8.698;2023-03-09T03:08:16;16.23;;;8.63;;
4812;SDS011;2420;51.202;8.698;2023-03-09T03:10:42;16.58;;;8.07;;
4812;SDS011;2420;51.202;8.698;2023-03-09T03:13:08;17.90;;;8.10;;
4812;SDS011;2420;51.202;8.698;2023-03-09T03:15:33;15.63;;;8.15;;
4812;SDS011;2420;51.202;8.698;2023-03-09T03:17:59;15.73;;;8.15;;
4812;SDS011;2420;51.202;8.698;2023-03-09T03:20:25;14.88;;;7.85;;
4812;SDS011;2420;51.202;8.698;2023-03-09T03:22:50;15.70;;;8.38;;
4812;SDS011;2420;51.202;8.698;2023-03-09T03:25:16;15.20;;;8.20;;
4812;SDS011;2420;51.202;8.698;2023-03-09T03:27:42;18.73;;;8.40;;
4812;SDS011;2420;51.202;8.698;2023-03-09T03:30:09;17.77;;;8.43;;
4812;SDS011;2420;51.202;8.698;2023-03-09T03:32:35;18.50;;;8.50;;
4812;SDS011;2420;51.202;8.698;2023-03-09T03:35:01;14.75;;;8.20;;
4812;SDS011;2420;51.202;8.698;2023-03-09T03:37:26;16.80;;;8.20;;
4812;SDS011;2420;51.202;8.698;2023-03-09T03:39:52;15.88;;;8.02;;
4812;SDS011;2420;51.202;8.698;2023-03-09T03:42:17;14.90;;;7.70;;
4812;SDS011;2420;51.202;8.698;2023-03-09T03:44:43;14.82;;;7.60;;
4812;SDS011;2420;51.202;8.698;2023-03-09T03:47:08;16.08;;;8.20;;
4812;SDS011;2420;51.202;8.698;2023-03-09T03:49:34;15.18;;;8.05;;
4812;SDS011;2420;51.202;8.698;2023-03-09T03:51:59;15.23;;;7.63;;
4812;SDS011;2420;51.202;8.698;2023-03-09T03:54:25;17.20;;;8.68;;
4812;SDS011;2420;51.202;8.698;2023-03-09T03:56:51;14.00;;;7.93;;
4812;SDS011;2420;51.202;8.698;2023-03-09T03:59:17;14.32;;;7.65;;
4812;SDS011;2420;51.202;8.698;2023-03-09T04:01:42;14.88;;;8.05;;
4812;SDS011;2420;51.202;8.698;2023-03-09T04:04:08;16.48;;;8.32;;
4812;SDS011;2420;51.202;8.698;2023-03-09T04:06:33;14.93;;;8.15;;
4812;SDS011;2420;51.202;8.698;2023-03-09T04:09:00;15.13;;;7.63;;
4812;SDS011;2420;51.202;8.698;2023-03-09T04:11:26;16.30;;;8.73;;
4812;SDS011;2420;51.202;8.698;2023-03-09T04:13:51;16.33;;;8.00;;
4812;SDS011;2420;51.202;8.698;2023-03-09T04:16:17;12.85;;;6.95;;
4812;SDS011;2420;51.202;8.698;2023-03-09T04:18:43;11.27;;;6.82;;
4812;SDS011;2420;51.202;8.698;2023-03-09T04:21:08;14.68;;;7.28;;
4812;SDS011;2420;51.202;8.698;2023-03-09T04:23:34;15.13;;;7.63;;
4812;SDS011;2420;51.202;8.698;2023-03-09T04:26:00;14.85;;;7.22;;
4812;SDS011;2420;51.202;8.698;2023-03-09T04:28:28;12.38;;;6.57;;
4812;SDS011;2420;51.202;8.698;2023-03-09T04:30:54;13.60;;;6.72;;
4812;SDS011;2420;51.202;8.698;2023-03-09T04:33:20;15.15;;;7.05;;
4812;SDS011;2420;51.202;8.698;2023-03-09T04:35:46;12.20;;;6.60;;
4812;SDS011;2420;51.202;8.698;2023-03-09T04:38:11;17.00;;;8.35;;
4812;SDS011;2420;51.202;8.698;2023-03-09T04:40:38;15.85;;;7.05;;
4812;SDS011;2420;51.202;8.698;2023-03-09T04:43:03;12.27;;;6.95;;
4812;SDS011;2420;51.202;8.698;2023-03-09T04:45:29;14.38;;;6.63;;
4812;SDS011;2420;51.202;8.698;2023-03-09T04:47:55;12.27;;;6.72;;
4812;SDS011;2420;51.202;8.698;2023-03-09T04:50:21;13.13;;;6.30;;
4812;SDS011;2420;51.202;8.698;2023-03-09T04:52:46;13.10;;;6.97;;
4812;SDS011;2420;51.202;8.698;2023-03-09T04:55:12;10.48;;;6.13;;
4812;SDS011;2420;51.202;8.698;2023-03-09T04:57:37;11.07;;;6.60;;
4812;SDS011;2420;51.202;8.698;2023-03-09T05:00:04;13.18;;;6.85;;
4812;SDS011;2420;51.202;8.698;2023-03-09T05:02:33;13.48;;;7.22;;
4812;SDS011;2420;51.202;8.698;2023-03-09T05:04:58;12.40;;;7.00;;
4812;SDS011;2420;51.202;8.698;2023-03-09T05:07:24;13.57;;;6.45;;
4812;SDS011;2420;51.202;8.698;2023-03-09T05:09:49;12.35;;;6.93;;
4812;SDS011;2420;51.202;8.698;2023-03-09T05:12:15;14.75;;;7.45;;
4812;SDS011;2420;51.202;8.698;2023-03-09T05:14:40;13.80;;;8.05;;
4812;SDS011;2420;51.202;8.698;2023-03-09T05:17:06;13.70;;;7.20;;
4812;SDS011;2420;51.202;8.698;2023-03-09T05:19:32;11.73;;;6.82;;
4812;SDS011;2420;51.202;8.698;2023-03-09T05:22:01;13.75;;;7.47;;
4812;SDS011;2420;51.202;8.698;2023-03-09T05:24:27;13.02;;;6.90;;
4812;SDS011;2420;51.202;8.698;2023-03-09T05:26:53;12.00;;;7.03;;
4812;SDS011;2420;51.202;8.698;2023-03-09T05:29:19;13.13;;;7.28;;
4812;SDS011;2420;51.202;8.698;2023-03-09T05:31:44;15.57;;;6.88;;
4812;SDS011;2420;51.202;8.698;2023-03-09T05:34:10;13.02;;;7.28;;
4812;SDS011;2420;51.202;8.698;2023-03-09T05:36:35;11.32;;;6.80;;
4812;SDS011;2420;51.202;8.698;2023-03-09T05:39:01;13.63;;;6.82;;
4812;SDS011;2420;51.202;8.698;2023-03-09T05:41:26;11.68;;;6.90;;
4812;SDS011;2420;51.202;8.698;2023-03-09T05:43:52;13.23;;;7.07;;
4812;SDS011;2420;51.202;8.698;2023-03-09T05:46:17;13.82;;;6.78;;
4812;SDS011;2420;51.202;8.698;2023-03-09T05:48:45;12.23;;;6.85;;
4812;SDS011;2420;51.202;8.698;2023-03-09T05:51:11;13.15;;;7.35;;
4812;SDS011;2420;51.202;8.698;2023-03-09T05:53:37;12.68;;;7.47;;
4812;SDS011;2420;51.202;8.698;2023-03-09T05:56:04;11.40;;;6.40;;
4812;SDS011;2420;51.202;8.698;2023-03-09T05:58:30;11.73;;;6.38;;
4812;SDS011;2420;51.202;8.698;2023-03-09T06:00:56;13.05;;;6.95;;
4812;SDS011;2420;51.202;8.698;2023-03-09T06:03:21;13.95;;;7.30;;
4812;SDS011;2420;51.202;8.698;2023-03-09T06:05:57;12.15;;;7.07;;
4812;SDS011;2420;51.202;8.698;2023-03-09T06:08:27;13.75;;;7.07;;
4812;SDS011;2420;51.202;8.698;2023-03-09T06:10:53;11.57;;;6.63;;
4812;SDS011;2420;51.202;8.698;2023-03-09T06:13:18;13.75;;;7.97;;
4812;SDS011;2420;51.202;8.698;2023-03-09T06:15:45;12.77;;;6.80;;
4812;SDS011;2420;51.202;8.698;2023-03-09T06:18:11;11.80;;;7.00;;
4812;SDS011;2420;51.202;8.698;2023-03-09T06:20:36;10.32;;;6.47;;
4812;SDS011;2420;51.202;8.698;2023-03-09T06:23:02;14.45;;;7.60;;
4812;SDS011;2420;51.202;8.698;2023-03-09T06:25:28;12.32;;;6.88;;
4812;SDS011;2420;51.202;8.698;2023-03-09T06:27:54;12.00;;;7.10;;
4812;SDS011;2420;51.202;8.698;2023-03-09T06:30:19;12.75;;;7.35;;
4812;SDS011;2420;51.202;8.698;2023-03-09T06:32:46;13.05;;;7.40;;
4812;SDS011;2420;51.202;8.698;2023-03-09T06:35:12;12.82;;;7.40;;
4812;SDS011;2420;51.202;8.698;2023-03-09T06:37:38;12.93;;;7.63;;
4812;SDS011;2420;51.202;8.698;2023-03-09T06:40:03;13.15;;;7.47;;
4812;SDS011;2420;51.202;8.698;2023-03-09T06:42:30;12.57;;;7.50;;
4812;SDS011;2420;51.202;8.698;2023-03-09T06:44:55;11.27;;;6.22;;
4812;SDS011;2420;51.202;8.698;2023-03-09T06:47:21;13.07;;;7.10;;
4812;SDS011;2420;51.202;8.698;2023-03-09T06:49:46;13.18;;;7.18;;
4812;SDS011;2420;51.202;8.698;2023-03-09T06:52:12;13.27;;;7.65;;
4812;SDS011;2420;51.202;8.698;2023-03-09T06:54:37;12.57;;;7.32;;
4812;SDS011;2420;51.202;8.698;2023-03-09T06:57:03;18.50;;;7.32;;
4812;SDS011;2420;51.202;8.698;2023-03-09T06:59:29;14.05;;;7.95;;
4812;SDS011;2420;51.202;8.698;2023-03-09T07:01:55;13.77;;;7.28;;
4812;SDS011;2420;51.202;8.698;2023-03-09T07:04:20;13.10;;;7.50;;
4812;SDS011;2420;51.202;8.698;2023-03-09T07:06:46;12.68;;;7.82;;
4812;SDS011;2420;51.202;8.698;2023-03-09T07:09:11;29.25;;;13.65;;
4812;SDS011;2420;51.202;8.698;2023-03-09T07:11:37;18.73;;;10.45;;
4812;SDS011;2420;51.202;8.698;2023-03-09T07:14:02;19.23;;;10.65;;
4812;SDS011;2420;51.202;8.698;2023-03-09T07:16:28;17.40;;;9.98;;
4812;SDS011;2420;51.202;8.698;2023-03-09T07:18:55;16.35;;;9.13;;
4812;SDS011;2420;51.202;8.698;2023-03-09T07:21:21;15.82;;;8.82;;
4812;SDS011;2420;51.202;8.698;2023-03-09T07:23:47;19.73;;;10.73;;
4812;SDS011;2420;51.202;8.698;2023-03-09T07:26:12;20.10;;;11.95;;
4812;SDS011;2420;51.202;8.698;2023-03-09T07:28:38;21.20;;;11.60;;
4812;SDS011;2420;51.202;8.698;2023-03-09T07:31:10;23.00;;;12.32;;
4812;SDS011;2420;51.202;8.698;2023-03-09T07:33:37;19.80;;;11.50;;
4812;SDS011;2420;51.202;8.698;2023-03-09T07:36:06;20.10;;;11.13;;
4812;SDS011;2420;51.202;8.698;2023-03-09T07:38:33;21.05;;;11.50;;
4812;SDS011;2420;51.202;8.698;2023-03-09T07:40:59;19.48;;;10.45;;
4812;SDS011;2420;51.202;8.698;2023-03-09T07:43:26;16.42;;;9.38;;
4812;SDS011;2420;51.202;8.698;2023-03-09T07:45:52;14.68;;;8.30;;
4812;SDS011;2420;51.202;8.698;2023-03-09T07:48:18;13.48;;;7.82;;
4812;SDS011;2420;51.202;8.698;2023-03-09T07:50:44;13.05;;;7.15;;
4812;SDS011;2420;51.202;8.698;2023-03-09T07:53:10;12.80;;;7.40;;
4812;SDS011;2420;51.202;8.698;2023-03-09T07:55:35;11.55;;;6.70;;
4812;SDS011;2420;51.202;8.698;2023-03-09T07:58:02;13.27;;;7.38;;
4812;SDS011;2420;51.202;8.698;2023-03-09T08:00:28;14.57;;;8.00;;
4812;SDS011;2420;51.202;8.698;2023-03-09T08:02:55;11.30;;;7.22;;
4812;SDS011;2420;51.202;8.698;2023-03-09T08:05:21;11.23;;;6.40;;
4812;SDS011;2420;51.202;8.698;2023-03-09T08:07:47;12.40;;;7.25;;
4812;SDS011;2420;51.202;8.698;2023-03-09T08:10:15;12.18;;;7.65;;
4812;SDS011;2420;51.202;8.698;2023-03-09T08:12:42;12.65;;;7.40;;
4812;SDS011;2420;51.202;8.698;2023-03-09T08:15:08;12.32;;;7.25;;
4812;SDS011;2420;51.202;8.698;2023-03-09T08:17:34;12.10;;;7.20;;
4812;SDS011;2420;51.202;8.698;2023-03-09T08:20:00;11.00;;;6.85;;
4812;SDS011;2420;51.202;8.698;2023-03-09T08:22:25;8.93;;;6.38;;
4812;SDS011;2420;51.202;8.698;2023-03-09T08:24:51;10.70;;;6.50;;
4812;SDS011;2420;51.202;8.698;2023-03-09T08:27:17;10.05;;;6.35;;
4812;SDS011;2420;51.202;8.698;2023-03-09T08:29:43;10.13;;;6.07;;
4812;SDS011;2420;51.202;8.698;2023-03-09T08:32:08;12.20;;;6.82;;
4812;SDS011;2420;51.202;8.698;2023-03-09T08:34:35;12.18;;;6.78;;
4812;SDS011;2420;51.202;8.698;2023-03-09T08:37:02;13.52;;;7.60;;
4812;SDS011;2420;51.202;8.698;2023-03-09T08:39:27;12.43;;;7.75;;
4812;SDS011;2420;51.202;8.698;2023-03-09T08:41:53;14.65;;;9.13;;
4812;SDS011;2420;51.202;8.698;2023-03-09T08:44:19;13.65;;;8.20;;
4812;SDS011;2420;51.202;8.698;2023-03-09T08:46:44;16.70;;;8.95;;
4812;SDS011;2420;51.202;8.698;2023-03-09T08:49:10;13.27;;;8.38;;
4812;SDS011;2420;51.202;8.698;2023-03-09T08:51:35;13.77;;;8.20;;
4812;SDS011;2420;51.202;8.698;2023-03-09T08:54:01;14.27;;;9.35;;
4812;SDS011;2420;51.202;8.698;2023-03-09T08:56:26;17.23;;;9.93;;
4812;SDS011;2420;51.202;8.698;2023-03-09T08:58:52;17.08;;;9.73;;
4812;SDS011;2420;51.202;8.698;2023-03-09T09:01:17;16.73;;;9.15;;
4812;SDS011;2420;51.202;8.698;2023-03-09T09:03:43;14.57;;;9.07;;
4812;SDS011;2420;51.202;8.698;2023-03-09T09:06:12;15.90;;;10.00;;
4812;SDS011;2420;51.202;8.698;2023-03-09T09:08:39;19.90;;;11.90;;
4812;SDS011;2420;51.202;8.698;2023-03-09T09:11:09;20.08;;;11.20;;
4812;SDS011;2420;51.202;8.698;2023-03-09T09:13:37;22.75;;;13.55;;
4812;SDS011;2420;51.202;8.698;2023-03-09T09:16:04;24.13;;;15.35;;
4812;SDS011;2420;51.202;8.698;2023-03-09T09:18:31;20.33;;;14.05;;
4812;SDS011;2420;51.202;8.698;2023-03-09T09:20:57;19.65;;;13.20;;
4812;SDS011;2420;51.202;8.698;2023-03-09T09:23:23;16.92;;;12.00;;
4812;SDS011;2420;51.202;8.698;2023-03-09T09:25:55;28.02;;;15.63;;
4812;SDS011;2420;51.202;8.698;2023-03-09T09:28:21;17.35;;;10.65;;
4812;SDS011;2420;51.202;8.698;2023-03-09T09:30:54;26.55;;;18.40;;
4812;SDS011;2420;51.202;8.698;2023-03-09T09:33:29;19.90;;;13.73;;
4812;SDS011;2420;51.202;8.698;2023-03-09T09:35:57;17.38;;;11.68;;
4812;SDS011;2420;51.202;8.698;2023-03-09T09:38:27;23.90;;;15.32;;
4812;SDS011;2420;51.202;8.698;2023-03-09T09:40:54;20.30;;;13.98;;
4812;SDS011;2420;51.202;8.698;2023-03-09T09:43:22;30.48;;;18.30;;
4812;SDS011;2420;51.202;8.698;2023-03-09T09:45:49;22.42;;;13.68;;
4812;SDS011;2420;51.202;8.698;2023-03-09T09:48:18;16.50;;;10.27;;
4812;SDS011;2420;51.202;8.698;2023-03-09T09:56:14;14.68;;;9.40;;
4812;SDS011;2420;51.202;8.698;2023-03-09T10:01:18;17.95;;;10.20;;
4812;SDS011;2420;51.202;8.698;2023-03-09T10:04:07;13.85;;;8.55;;
4812;SDS011;2420;51.202;8.698;2023-03-09T10:06:39;20.48;;;12.18;;
4812;SDS011;2420;51.202;8.698;2023-03-09T10:09:25;26.65;;;14.48;;
4812;SDS011;2420;51.202;8.698;2023-03-09T10:11:54;28.85;;;15.23;;
4812;SDS011;2420;51.202;8.698;2023-03-09T10:14:26;30.58;;;13.68;;
4812;SDS011;2420;51.202;8.698;2023-03-09T10:16:58;24.25;;;13.60;;
4812;SDS011;2420;51.202;8.698;2023-03-09T10:19:51;21.05;;;12.60;;
4812;SDS011;2420;51.202;8.698;2023-03-09T10:22:20;22.33;;;12.75;;
4812;SDS011;2420;51.202;8.698;2023-03-09T10:24:50;17.90;;;11.50;;
4812;SDS011;2420;51.202;8.698;2023-03-09T10:27:18;21.42;;;12.82;;
4812;SDS011;2420;51.202;8.698;2023-03-09T10:32:49;19.70;;;12.40;;
4812;SDS011;2420;51.202;8.698;2023-03-09T10:35:42;30.17;;;18.90;;
4812;SDS011;2420;51.202;8.698;2023-03-09T10:38:23;25.20;;;17.98;;
4812;SDS011;2420;51.202;8.698;2023-03-09T10:40:50;22.90;;;15.65;;
4812;SDS011;2420;51.202;8.698;2023-03-09T10:43:28;19.05;;;12.52;;
4812;SDS011;2420;51.202;8.698;2023-03-09T10:45:56;8.73;;;5.75;;
4812;SDS011;2420;51.202;8.698;2023-03-09T10:48:32;4.88;;;3.30;;
4812;SDS011;2420;51.202;8.698;2023-03-09T10:50:59;2.47;;;1.80;;
4812;SDS011;2420;51.202;8.698;2023-03-09T10:53:28;1.88;;;1.60;;
4812;SDS011;2420;51.202;8.698;2023-03-09T10:56:21;2.10;;;1.90;;
4812;SDS011;2420;51.202;8.698;2023-03-09T10:58:48;1.83;;;1.48;;
4812;SDS011;2420;51.202;8.698;2023-03-09T11:01:40;2.40;;;1.60;;
4812;SDS011;2420;51.202;8.698;2023-03-09T11:04:25;1.60;;;1.50;;
4812;SDS011;2420;51.202;8.698;2023-03-09T11:09:26;2.40;;;2.20;;
4812;SDS011;2420;51.202;8.698;2023-03-09T11:12:18;2.25;;;1.98;;
4812;SDS011;2420;51.202;8.698;2023-03-09T11:14:47;1.70;;;1.60;;
4812;SDS011;2420;51.202;8.698;2023-03-09T11:22:38;2.13;;;1.80;;
4812;SDS011;2420;51.202;8.698;2023-03-09T11:25:13;1.80;;;1.70;;
4812;SDS011;2420;51.202;8.698;2023-03-09T11:27:43;2.00;;;1.40;;
4812;SDS011;2420;51.202;8.698;2023-03-09T11:30:15;1.40;;;1.30;;
4812;SDS011;2420;51.202;8.698;2023-03-09T11:32:43;1.40;;;1.30;;
4812;SDS011;2420;51.202;8.698;2023-03-09T11:35:14;1.40;;;1.30;;
4812;SDS011;2420;51.202;8.698;2023-03-09T11:37:43;1.48;;;1.38;;
4812;SDS011;2420;51.202;8.698;2023-03-09T11:42:45;1.45;;;1.33;;
4812;SDS011;2420;51.202;8.698;2023-03-09T11:45:28;1.90;;;1.58;;
4812;SDS011;2420;51.202;8.698;2023-03-09T11:50:59;1.40;;;1.30;;
4812;SDS011;2420;51.202;8.698;2023-03-09T11:53:51;2.85;;;2.17;;
4812;SDS011;2420;51.202;8.698;2023-03-09T11:56:18;4.18;;;3.25;;
4812;SDS011;2420;51.202;8.698;2023-03-09T11:58:54;4.80;;;3.67;;
4812;SDS011;2420;51.202;8.698;2023-03-09T12:01:35;6.68;;;4.30;;
4812;SDS011;2420;51.202;8.698;2023-03-09T12:04:06;4.70;;;2.45;;
4812;SDS011;2420;51.202;8.698;2023-03-09T12:06:34;4.30;;;3.20;;
4812;SDS011;2420;51.202;8.698;2023-03-09T12:09:02;7.10;;;4.07;;
4812;SDS011;2420;51.202;8.698;2023-03-09T12:11:32;4.38;;;3.33;;
4812;SDS011;2420;51.202;8.698;2023-03-09T12:14:09;3.63;;;2.38;;
4812;SDS011;2420;51.202;8.698;2023-03-09T12:16:41;2.53;;;2.17;;
4812;SDS011;2420;51.202;8.698;2023-03-09T12:21:36;4.97;;;3.88;;
4812;SDS011;2420;51.202;8.698;2023-03-09T12:24:21;2.95;;;2.53;;
4812;SDS011;2420;51.202;8.698;2023-03-09T12:27:16;3.30;;;2.70;;
4812;SDS011;2420;51.202;8.698;2023-03-09T12:34:40;3.42;;;2.50;;
4812;SDS011;2420;51.202;8.698;2023-03-09T12:42:41;3.05;;;2.53;;
4812;SDS011;2420;51.202;8.698;2023-03-09T12:50:37;4.57;;;3.20;;
4812;SDS011;2420;51.202;8.698;2023-03-09T12:53:16;4.35;;;3.22;;
4812;SDS011;2420;51.202;8.698;2023-03-09T12:55:44;3.90;;;3.03;;
4812;SDS011;2420;51.202;8.698;2023-03-09T13:03:30;4.95;;;3.50;;
4812;SDS011;2420;51.202;8.698;2023-03-09T13:05:56;4.38;;;3.42;;
4812;SDS011;2420;51.202;8.698;2023-03-09T13:08:31;4.97;;;3.50;;
4812;SDS011;2420;51.202;8.698;2023-03-09T13:16:51;5.40;;;3.72;;
4812;SDS011;2420;51.202;8.698;2023-03-09T13:29:38;4.85;;;3.53;;
4812;SDS011;2420;51.202;8.698;2023-03-09T13:32:55;6.88;;;4.25;;
4812;SDS011;2420;51.202;8.698;2023-03-09T13:35:15;7.97;;;4.50;;
4812;SDS011;2420;51.202;8.698;2023-03-09T13:37:41;8.43;;;4.47;;
4812;SDS011;2420;51.202;8.698;2023-03-09T13:42:41;8.02;;;4.65;;
4812;SDS011;2420;51.202;8.698;2023-03-09T13:45:30;8.63;;;4.80;;
4812;SDS011;2420;51.202;8.698;2023-03-09T13:47:59;6.45;;;4.25;;
4812;SDS011;2420;51.202;8.698;2023-03-09T13:50:28;8.23;;;5.28;;
4812;SDS011;2420;51.202;8.698;2023-03-09T13:53:04;9.63;;;5.35;;
4812;SDS011;2420;51.202;8.698;2023-03-09T13:55:31;8.75;;;5.47;;
4812;SDS011;2420;51.202;8.698;2023-03-09T14:00:39;9.13;;;5.82;;
4812;SDS011;2420;51.202;8.698;2023-03-09T14:03:26;13.02;;;6.50;;
4812;SDS011;2420;51.202;8.698;2023-03-09T14:08:28;8.35;;;5.75;;
4812;SDS011;2420;51.202;8.698;2023-03-09T14:11:02;15.40;;;7.03;;
4812;SDS011;2420;51.202;8.698;2023-03-09T14:13:30;9.93;;;5.97;;
4812;SDS011;2420;51.202;8.698;2023-03-09T14:16:01;10.75;;;6.43;;
4812;SDS011;2420;51.202;8.698;2023-03-09T14:18:33;9.55;;;6.28;;
4812;SDS011;2420;51.202;8.698;2023-03-09T14:21:16;10.60;;;6.93;;
4812;SDS011;2420;51.202;8.698;2023-03-09T14:23:42;14.43;;;6.90;;
4812;SDS011;2420;51.202;8.698;2023-03-09T14:26:08;12.80;;;6.95;;
4812;SDS011;2420;51.202;8.698;2023-03-09T14:28:36;12.13;;;7.82;;
4812;SDS011;2420;51.202;8.698;2023-03-09T14:31:19;14.82;;;8.55;;
4812;SDS011;2420;51.202;8.698;2023-03-09T14:33:56;15.13;;;8.02;;
4812;SDS011;2420;51.202;8.698;2023-03-09T14:36:28;14.75;;;8.02;;
4812;SDS011;2420;51.202;8.698;2023-03-09T14:38:59;13.57;;;7.57;;
4812;SDS011;2420;51.202;8.698;2023-03-09T14:41:27;10.27;;;5.88;;
4812;SDS011;2420;51.202;8.698;2023-03-09T14:43:54;9.73;;;5.65;;
4812;SDS011;2420;51.202;8.698;2023-03-09T14:48:50;8.45;;;5.68;;
4812;SDS011;2420;51.202;8.698;2023-03-09T14:51:19;10.15;;;5.60;;
4812;SDS011;2420;51.202;8.698;2023-03-09T14:54:00;8.70;;;5.75;;
4812;SDS011;2420;51.202;8.698;2023-03-09T14:56:27;7.65;;;5.00;;
4812;SDS011;2420;51.202;8.698;2023-03-09T14:58:55;6.68;;;4.68;;
4812;SDS011;2420;51.202;8.698;2023-03-09T15:01:24;7.32;;;5.28;;
4812;SDS011;2420;51.202;8.698;2023-03-09T15:03:52;8.25;;;5.13;;
4812;SDS011;2420;51.202;8.698;2023-03-09T15:06:18;9.93;;;4.80;;
4812;SDS011;2420;51.202;8.698;2023-03-09T15:08:44;7.93;;;4.35;;
4812;SDS011;2420;51.202;8.698;2023-03-09T15:11:09;6.25;;;4.32;;
4812;SDS011;2420;51.202;8.698;2023-03-09T15:13:35;6.43;;;4.38;;
4812;SDS011;2420;51.202;8.698;2023-03-09T15:16:02;7.68;;;4.82;;
4812;SDS011;2420;51.202;8.698;2023-03-09T15:18:28;7.60;;;5.20;;
4812;SDS011;2420;51.202;8.698;2023-03-09T15:20:53;5.72;;;4.25;;
4812;SDS011;2420;51.202;8.698;2023-03-09T15:23:19;5.80;;;4.30;;
4812;SDS011;2420;51.202;8.698;2023-03-09T15:25:44;6.35;;;4.68;;
4812;SDS011;2420;51.202;8.698;2023-03-09T15:28:12;7.40;;;4.95;;
4812;SDS011;2420;51.202;8.698;2023-03-09T15:30:38;8.82;;;5.40;;
4812;SDS011;2420;51.202;8.698;2023-03-09T15:33:03;5.90;;;4.40;;
4812;SDS011;2420;51.202;8.698;2023-03-09T15:35:29;6.07;;;4.00;;
4812;SDS011;2420;51.202;8.698;2023-03-09T15:37:55;7.70;;;4.80;;
4812;SDS011;2420;51.202;8.698;2023-03-09T15:40:20;8.32;;;5.65;;
4812;SDS011;2420;51.202;8.698;2023-03-09T15:42:47;10.85;;;6.35;;
4812;SDS011;2420;51.202;8.698;2023-03-09T15:45:14;19.58;;;8.90;;
4812;SDS011;2420;51.202;8.698;2023-03-09T15:47:41;8.27;;;5.97;;
4812;SDS011;2420;51.202;8.698;2023-03-09T15:50:08;9.20;;;6.35;;
4812;SDS011;2420;51.202;8.698;2023-03-09T15:52:35;22.80;;;11.88;;
4812;SDS011;2420;51.202;8.698;2023-03-09T15:55:03;10.73;;;6.93;;
4812;SDS011;2420;51.202;8.698;2023-03-09T15:57:30;9.02;;;5.70;;
4812;SDS011;2420;51.202;8.698;2023-03-09T15:59:56;10.25;;;6.53;;
4812;SDS011;2420;51.202;8.698;2023-03-09T16:02:22;7.40;;;4.93;;
4812;SDS011;2420;51.202;8.698;2023-03-09T16:04:48;7.53;;;3.92;;
4812;SDS011;2420;51.202;8.698;2023-03-09T16:07:14;5.22;;;3.75;;
4812;SDS011;2420;51.202;8.698;2023-03-09T16:09:40;6.45;;;4.22;;
4812;SDS011;2420;51.202;8.698;2023-03-09T16:12:05;5.28;;;3.53;;
4812;SDS011;2420;51.202;8.698;2023-03-09T16:14:31;5.85;;;3.78;;
4812;SDS011;2420;51.202;8.698;2023-03-09T16:16:57;5.82;;;3.13;;
4812;SDS011;2420;51.202;8.698;2023-03-09T16:19:22;4.75;;;3.13;;
4812;SDS011;2420;51.202;8.698;2023-03-09T16:21:48;6.00;;;3.05;;
4812;SDS011;2420;51.202;8.698;2023-03-09T16:24:13;5.65;;;3.25;;
4812;SDS011;2420;51.202;8.698;2023-03-09T16:26:39;9.52;;;4.60;;
4812;SDS011;2420;51.202;8.698;2023-03-09T16:29:04;8.75;;;4.15;;
4812;SDS011;2420;51.202;8.698;2023-03-09T16:31:30;7.30;;;4.13;;